PWSweather.com
Personal Weather Stations
Station Observations
N3SME
Betz Creek, Wilmington Island, Savannah, GA 31410

Betz Creek, Wilmington IslandSavannah, GA 31410

Lat: 32.023021, Lon: -80.959452

Elevation: 15

Station Type: Ambient

High Low Average
Temperature 85.8°F29.9°C 72.5°F22.5°C 80.3°F26.8°C
Dew Point 68.7°F20.4°C 60.7°F15.9°C 66.4°F19.1°C
Winds 7.6 mph 12.2 kmh 0.7 mph 1.1 kmh 3.0 mph SSW4.8 kmh SSW
Wind Gusts 21.3 mph34.3 kmh 7.6 mph12.2 kmh 12.0 mph19.3 kmh
Humidity 76% 45% 64%
Pressure 29.34 in993.6 mb 29.23 in989.8 mb -
Precipitation 0.04 in1.0 mm - -
Hour Temp Dew Point Humidity Winds Wind Gusts Pressure Precip Precip Rate Daily Precip Total
12:50 PM 85.1°F29.5°C 60.7°F15.9°C 46% 3.1 mph WSW5.0 kmh WSW 8.3 mph13.4 kmh 29.34 in993.6 mb 0.00 in0.0 mm 0.00 in/hr0.0 mm/hr 0.01 in0.3 mm
01:05 PM 85.8°F29.9°C 60.7°F15.9°C 45% 3.8 mph WSW6.1 kmh WSW 13.0 mph20.9 kmh 29.33 in993.2 mb 0.00 in0.0 mm 0.00 in/hr0.0 mm/hr 0.01 in0.3 mm
01:20 PM 85.8°F29.9°C 63.4°F17.4°C 49% 3.8 mph S6.1 kmh S 9.8 mph15.8 kmh 29.33 in993.2 mb 0.00 in0.0 mm 0.00 in/hr0.0 mm/hr 0.01 in0.3 mm
01:35 PM 84.4°F29.1°C 67.3°F19.6°C 58% 2.2 mph SSE3.5 kmh SSE 8.3 mph13.4 kmh 29.33 in993.2 mb 0.00 in0.0 mm 0.00 in/hr0.0 mm/hr 0.01 in0.3 mm
01:50 PM 83.5°F28.6°C 67.6°F19.8°C 60% 3.1 mph SSW5.0 kmh SSW 9.2 mph14.8 kmh 29.33 in993.2 mb 0.00 in0.0 mm 0.00 in/hr0.0 mm/hr 0.01 in0.3 mm
02:05 PM 82.6°F28.1°C 68.2°F20.1°C 63% 2.2 mph S3.5 kmh S 14.5 mph23.3 kmh 29.31 in992.6 mb 0.00 in0.0 mm 0.00 in/hr0.0 mm/hr 0.01 in0.3 mm
02:20 PM 83.1°F28.4°C 68.7°F20.4°C 63% 4.5 mph S7.2 kmh S 10.7 mph17.2 kmh 29.31 in992.6 mb 0.00 in0.0 mm 0.00 in/hr0.0 mm/hr 0.01 in0.3 mm
02:35 PM 82.9°F28.3°C 67.1°F19.5°C 60% 3.8 mph SSE6.1 kmh SSE 9.8 mph15.8 kmh 29.30 in992.2 mb 0.00 in0.0 mm 0.00 in/hr0.0 mm/hr 0.01 in0.3 mm
02:50 PM 82.2°F27.9°C 67.4°F19.7°C 62% 3.1 mph S5.0 kmh S 15.2 mph24.5 kmh 29.30 in992.2 mb 0.00 in0.0 mm 0.00 in/hr0.0 mm/hr 0.01 in0.3 mm
03:05 PM 81.7°F27.6°C 67.4°F19.7°C 63% 4.5 mph SSW7.2 kmh SSW 12.1 mph19.5 kmh 29.29 in991.9 mb 0.00 in0.0 mm 0.00 in/hr0.0 mm/hr 0.01 in0.3 mm
03:20 PM 80.8°F27.1°C 68.0°F20.0°C 66% 4.5 mph S7.2 kmh S 12.1 mph19.5 kmh 29.29 in991.9 mb 0.00 in0.0 mm 0.00 in/hr0.0 mm/hr 0.01 in0.3 mm
03:35 PM 81.9°F27.7°C 68.5°F20.3°C 65% 2.2 mph S3.5 kmh S 10.7 mph17.2 kmh 29.28 in991.5 mb 0.00 in0.0 mm 0.00 in/hr0.0 mm/hr 0.01 in0.3 mm
03:50 PM 81.7°F27.6°C 67.9°F19.9°C 64% 2.2 mph SW3.5 kmh SW 12.1 mph19.5 kmh 29.27 in991.2 mb 0.00 in0.0 mm 0.00 in/hr0.0 mm/hr 0.01 in0.3 mm
04:05 PM 80.2°F26.8°C 67.5°F19.7°C 66% 2.2 mph S3.5 kmh S 9.8 mph15.8 kmh 29.27 in991.2 mb 0.00 in0.0 mm 0.00 in/hr0.0 mm/hr 0.01 in0.3 mm
04:20 PM 79.2°F26.2°C 66.4°F19.1°C 66% 3.8 mph SSW6.1 kmh SSW 12.1 mph19.5 kmh 29.27 in991.2 mb 0.00 in0.0 mm 0.00 in/hr0.0 mm/hr 0.01 in0.3 mm
04:35 PM 78.6°F25.9°C 66.4°F19.1°C 67% 3.1 mph SSE5.0 kmh SSE 12.1 mph19.5 kmh 29.26 in990.9 mb 0.00 in0.0 mm 0.00 in/hr0.0 mm/hr 0.01 in0.3 mm
04:50 PM 78.4°F25.8°C 65.8°F18.8°C 66% 3.1 mph S5.0 kmh S 10.7 mph17.2 kmh 29.25 in990.5 mb 0.00 in0.0 mm 0.00 in/hr0.0 mm/hr 0.01 in0.3 mm
05:05 PM 79.0°F26.1°C 66.7°F19.3°C 67% 5.4 mph SW8.7 kmh SW 13.0 mph20.9 kmh 29.25 in990.5 mb 0.00 in0.0 mm 0.00 in/hr0.0 mm/hr 0.01 in0.3 mm
05:20 PM 79.0°F26.1°C 65.8°F18.8°C 65% 3.8 mph SSW6.1 kmh SSW 14.5 mph23.3 kmh 29.25 in990.5 mb 0.00 in0.0 mm 0.00 in/hr0.0 mm/hr 0.01 in0.3 mm
05:35 PM 79.7°F26.5°C 66.5°F19.2°C 65% 3.1 mph S5.0 kmh S 13.0 mph20.9 kmh 29.23 in989.8 mb 0.00 in0.0 mm 0.00 in/hr0.0 mm/hr 0.01 in0.3 mm
05:50 PM 78.4°F25.8°C 66.7°F19.3°C 68% 0.7 mph SW1.1 kmh SW 8.3 mph13.4 kmh 29.23 in989.8 mb 0.00 in0.0 mm 0.00 in/hr0.0 mm/hr 0.01 in0.3 mm
06:05 PM 77.4°F25.2°C 67.0°F19.4°C 71% 2.2 mph SSW3.5 kmh SSW 8.3 mph13.4 kmh 29.24 in990.2 mb 0.00 in0.0 mm 0.00 in/hr0.0 mm/hr 0.01 in0.3 mm
06:20 PM 77.4°F25.2°C 66.5°F19.2°C 70% 2.2 mph SSW3.5 kmh SSW 12.1 mph19.5 kmh 29.24 in990.2 mb 0.00 in0.0 mm 0.00 in/hr0.0 mm/hr 0.01 in0.3 mm
06:35 PM 77.0°F25.0°C 67.0°F19.4°C 72% 2.2 mph SW3.5 kmh SW 9.8 mph15.8 kmh 29.25 in990.5 mb 0.00 in0.0 mm 0.00 in/hr0.0 mm/hr 0.01 in0.3 mm
06:50 PM 76.5°F24.7°C 67.3°F19.6°C 74% 1.6 mph SW2.6 kmh SW 8.3 mph13.4 kmh 29.26 in990.9 mb 0.00 in0.0 mm 0.00 in/hr0.0 mm/hr 0.01 in0.3 mm
07:05 PM 76.3°F24.6°C 68.0°F20.0°C 76% 3.8 mph SSW6.1 kmh SSW 7.6 mph12.2 kmh 29.26 in990.9 mb 0.00 in0.0 mm 0.00 in/hr0.0 mm/hr 0.01 in0.3 mm
07:20 PM 75.9°F24.4°C 66.0°F18.9°C 72% 7.6 mph W12.2 kmh W 21.3 mph34.3 kmh 29.28 in991.5 mb 0.00 in0.0 mm 0.00 in/hr0.0 mm/hr 0.04 in1.0 mm
07:35 PM 72.5°F22.5°C 61.9°F16.6°C 70% 4.5 mph NW7.2 kmh NW 19.0 mph30.6 kmh 29.30 in992.2 mb 0.02 in0.5 mm 0.08 in/hr2.0 mm/hr 0.04 in1.0 mm
07:50 PM 70.2°F21.2°C 61.7°F16.5°C 75% 4.5 mph WNW7.2 kmh WNW 15.9 mph25.6 kmh 29.30 in992.2 mb 0.02 in0.5 mm 0.00 in/hr0.0 mm/hr 0.04 in1.0 mm
08:05 PM 69.1°F20.6°C 62.2°F16.8°C 79% 1.6 mph NW2.6 kmh NW 13.0 mph20.9 kmh 29.30 in992.2 mb 0.02 in0.5 mm 0.00 in/hr0.0 mm/hr 0.04 in1.0 mm
08:35 PM 66.7°F19.3°C 63.0°F17.2°C 88% Calm Calm 3.8 mph6.1 kmh 29.30 in992.2 mb 0.09 in2.3 mm 0.14 in/hr3.6 mm/hr 0.13 in3.3 mm
08:50 PM 66.6°F19.2°C 64.1°F17.8°C 92% Calm Calm 3.1 mph5.0 kmh 29.31 in992.6 mb 0.09 in2.3 mm 0.00 in/hr0.0 mm/hr 0.13 in3.3 mm
09:05 PM 66.6°F19.2°C 64.8°F18.2°C 94% Calm Calm 3.1 mph5.0 kmh 29.31 in992.6 mb 0.09 in2.3 mm 0.00 in/hr0.0 mm/hr 0.13 in3.3 mm
09:20 PM 66.4°F19.1°C 64.9°F18.3°C 95% Calm Calm 1.6 mph2.6 kmh 29.29 in991.9 mb 0.02 in0.5 mm 0.00 in/hr0.0 mm/hr 0.13 in3.3 mm
09:35 PM 66.2°F19.0°C 65.0°F18.3°C 96% Calm Calm 2.2 mph3.5 kmh 29.29 in991.9 mb 0.00 in0.0 mm 0.00 in/hr0.0 mm/hr 0.13 in3.3 mm
09:50 PM 66.2°F19.0°C 65.0°F18.3°C 96% Calm Calm 1.6 mph2.6 kmh 29.29 in991.9 mb 0.00 in0.0 mm 0.00 in/hr0.0 mm/hr 0.13 in3.3 mm
10:05 PM 66.2°F19.0°C 65.3°F18.5°C 97% Calm Calm 0.7 mph1.1 kmh 29.29 in991.9 mb 0.00 in0.0 mm 0.00 in/hr0.0 mm/hr 0.13 in3.3 mm
10:20 PM 66.2°F19.0°C 65.6°F18.7°C 98% 0.7 mph S1.1 kmh S 2.2 mph3.5 kmh 29.30 in992.2 mb 0.01 in0.3 mm 0.04 in/hr1.0 mm/hr 0.14 in3.6 mm
10:35 PM 66.0°F18.9°C 65.4°F18.6°C 98% 0.7 mph SW1.1 kmh SW 3.1 mph5.0 kmh 29.30 in992.2 mb 0.01 in0.3 mm 0.00 in/hr0.0 mm/hr 0.14 in3.6 mm
10:50 PM 66.2°F19.0°C 65.9°F18.8°C 99% Calm Calm 3.8 mph6.1 kmh 29.30 in992.2 mb 0.01 in0.3 mm 0.00 in/hr0.0 mm/hr 0.14 in3.6 mm
11:05 PM 66.4°F19.1°C 66.1°F18.9°C 99% 1.6 mph W2.6 kmh W 3.1 mph5.0 kmh 29.30 in992.2 mb 0.01 in0.3 mm 0.00 in/hr0.0 mm/hr 0.10 in2.5 mm
11:20 PM 66.4°F19.1°C 66.1°F18.9°C 99% Calm Calm 3.1 mph5.0 kmh 29.30 in992.2 mb 0.00 in0.0 mm 0.00 in/hr0.0 mm/hr 0.10 in2.5 mm
11:35 PM 66.4°F19.1°C 66.1°F18.9°C 99% Calm Calm 3.1 mph5.0 kmh 29.30 in992.2 mb 0.00 in0.0 mm 0.00 in/hr0.0 mm/hr 0.10 in2.5 mm
11:50 PM 66.4°F19.1°C 66.1°F18.9°C 99% Calm Calm 3.1 mph5.0 kmh 29.31 in992.6 mb 0.00 in0.0 mm 0.00 in/hr0.0 mm/hr 0.10 in2.5 mm